createdAt,value
2018-04-29T17:29:40.742Z,3.87
2018-04-29T17:32:06.461Z,4.12
2018-04-29T17:34:32.094Z,3.10
2018-04-29T17:36:58.774Z,3.57
2018-04-29T17:39:24.339Z,4.10
2018-04-29T17:41:49.944Z,3.57
2018-04-29T17:44:16.018Z,3.17
2018-04-29T17:46:41.501Z,3.43
2018-04-29T17:49:07.241Z,3.70
2018-04-29T17:51:32.965Z,3.30
2018-04-29T17:53:58.664Z,3.17
2018-04-29T17:56:24.296Z,3.50
2018-04-29T17:58:50.382Z,3.67
2018-04-29T18:01:16.391Z,3.20
2018-04-29T18:03:42.146Z,3.60
2018-04-29T18:06:07.767Z,3.60
2018-04-29T18:08:33.335Z,3.57
2018-04-29T18:10:59.072Z,2.97
2018-04-29T18:13:24.682Z,2.90
2018-04-29T18:15:50.243Z,3.23
2018-04-29T18:18:16.345Z,3.10
2018-04-29T18:20:42.002Z,3.20
2018-04-29T18:23:10.482Z,3.23
2018-04-29T18:25:36.059Z,3.23
2018-04-29T18:28:02.338Z,3.07
2018-04-29T18:30:27.934Z,3.67
2018-04-29T18:32:54.075Z,3.30
2018-04-29T18:35:19.779Z,3.43
2018-04-29T18:37:46.212Z,3.83
2018-04-29T18:40:11.906Z,4.25
2018-04-29T18:42:37.596Z,3.70
2018-04-29T18:45:03.991Z,3.80
2018-04-29T18:47:29.975Z,3.63
2018-04-29T18:49:55.616Z,3.50
2018-04-29T18:52:21.544Z,3.67
2018-04-29T18:54:47.374Z,3.67
2018-04-29T18:57:12.996Z,4.00
2018-04-29T18:59:38.711Z,3.83
2018-04-29T19:02:05.022Z,3.90
2018-04-29T19:04:30.737Z,3.93
2018-04-29T19:06:57.035Z,4.53
2018-04-29T19:09:22.640Z,3.97
2018-04-29T19:11:48.684Z,3.93
2018-04-29T19:14:14.363Z,5.37
2018-04-29T19:16:39.976Z,5.30
2018-04-29T19:19:05.694Z,4.13
2018-04-29T19:21:31.326Z,4.77
2018-04-29T19:23:57.036Z,4.30
2018-04-29T19:26:22.721Z,3.83
2018-04-29T19:28:48.460Z,3.43
2018-04-29T19:31:14.032Z,3.60
2018-04-29T19:33:39.722Z,3.93
2018-04-29T19:36:05.408Z,3.53
2018-04-29T19:38:31.107Z,3.53
2018-04-29T19:40:57.185Z,3.63
2018-04-29T19:43:22.754Z,4.00
2018-04-29T19:45:48.326Z,3.53
2018-04-29T19:48:14.551Z,4.20
2018-04-29T19:50:40.130Z,4.10
2018-04-29T19:53:05.741Z,3.50
2018-04-29T19:55:31.464Z,3.73
2018-04-29T19:57:57.180Z,4.43
2018-04-29T20:00:22.804Z,5.32
2018-04-29T20:02:48.867Z,4.68
2018-04-29T20:05:15.416Z,4.30
2018-04-29T20:07:41.236Z,4.20
2018-04-29T20:10:06.969Z,5.37
2018-04-29T20:12:32.561Z,5.10
2018-04-29T20:14:58.138Z,4.97
2018-04-29T20:17:23.928Z,4.97
2018-04-29T20:19:49.573Z,4.77
2018-04-29T20:22:15.177Z,5.90
2018-04-29T20:24:40.969Z,5.23
2018-04-29T20:27:06.704Z,4.83
2018-04-29T20:29:32.306Z,5.70
2018-04-29T20:31:58.034Z,5.70
2018-04-29T20:34:23.583Z,7.93
2018-04-29T20:36:49.143Z,7.68
2018-04-29T20:39:14.954Z,6.10
2018-04-29T20:41:40.587Z,5.40
2018-04-29T20:44:06.168Z,5.37
2018-04-29T20:46:31.902Z,5.63
2018-04-29T20:48:57.527Z,6.05
2018-04-29T20:51:23.096Z,4.97
2018-04-29T20:53:48.957Z,5.07
2018-04-29T20:56:14.770Z,4.80
2018-04-29T20:58:40.324Z,5.20
2018-04-29T21:01:06.041Z,4.23
2018-04-29T21:03:31.660Z,4.97
2018-04-29T21:05:57.227Z,5.37
2018-04-29T21:08:22.981Z,4.40
2018-04-29T21:10:48.809Z,4.57
2018-04-29T21:13:15.260Z,3.97
2018-04-29T21:15:40.996Z,4.53
2018-04-29T21:18:06.573Z,4.27
2018-04-29T21:20:32.190Z,4.20
2018-04-29T21:22:58.005Z,4.27
2018-04-29T21:25:23.725Z,5.25
2018-04-29T21:27:49.319Z,4.23
2018-04-29T21:30:15.087Z,5.00
2018-04-29T21:32:40.812Z,4.90
2018-04-29T21:35:06.386Z,5.00
2018-04-29T21:37:32.034Z,4.60
2018-04-29T21:39:57.802Z,4.40
2018-04-29T21:42:23.472Z,5.20
2018-04-29T21:44:49.031Z,4.90
2018-04-29T21:47:14.804Z,4.50
2018-04-29T21:49:40.498Z,4.97
2018-04-29T21:52:06.103Z,5.00
2018-04-29T21:54:31.962Z,4.73
2018-04-29T21:56:57.615Z,4.93
2018-04-29T21:59:23.224Z,4.73
2018-04-29T22:01:49.056Z,4.30
2018-04-29T22:04:14.754Z,4.33
2018-04-29T22:06:40.277Z,4.27
2018-04-29T22:09:06.051Z,3.80
2018-04-29T22:11:31.815Z,4.03
2018-04-29T22:13:57.380Z,4.20
2018-04-29T22:16:23.109Z,3.30
2018-04-29T22:18:48.677Z,3.20
2018-04-29T22:21:14.271Z,3.10
2018-04-29T22:23:40.071Z,2.47
2018-04-29T22:26:05.686Z,3.28
2018-04-29T22:28:31.247Z,2.70
2018-04-29T22:30:57.073Z,3.27
2018-04-29T22:33:22.637Z,2.93
2018-04-29T22:35:48.238Z,3.20
2018-04-29T22:38:14.009Z,2.90
2018-04-29T22:40:39.725Z,3.20
2018-04-29T22:43:05.354Z,2.93
2018-04-29T22:45:31.115Z,3.23
2018-04-29T22:47:56.762Z,2.67
2018-04-29T22:50:22.268Z,2.30
2018-04-29T22:52:51.495Z,2.12
2018-04-29T22:55:17.150Z,2.23
2018-04-29T22:57:42.740Z,2.57
2018-04-29T23:00:08.847Z,1.80
2018-04-29T23:02:34.402Z,1.63
2018-04-29T23:05:00.009Z,1.70
2018-04-29T23:07:25.761Z,1.30
2018-04-29T23:09:51.389Z,1.40
2018-04-29T23:12:17.004Z,1.17
2018-04-29T23:14:42.784Z,1.40
2018-04-29T23:17:08.455Z,0.83
2018-04-29T23:19:34.073Z,1.00
2018-04-29T23:21:59.831Z,1.10
2018-04-29T23:24:25.409Z,1.10
2018-04-29T23:26:51.363Z,1.00
2018-04-29T23:29:17.081Z,1.30
2018-04-29T23:31:42.721Z,0.97
2018-04-29T23:34:08.284Z,1.20
2018-04-29T23:36:34.367Z,1.00
2018-04-29T23:38:59.934Z,1.03
2018-04-29T23:41:25.540Z,1.00
2018-04-29T23:43:51.355Z,1.05
2018-04-29T23:46:17.300Z,1.13
2018-04-29T23:48:42.928Z,0.80
2018-04-29T23:51:08.651Z,1.00
2018-04-29T23:53:34.231Z,0.70
2018-04-29T23:55:59.783Z,0.73
2018-04-29T23:58:25.483Z,0.77
